Time;durP1;ratioP1;P1;durP2;ratioP2;P2;SDS_P1;SDS_P2;PMS_P1;PMS_P2;Temp;Humidity;BMP_temperature;BMP_pressure;BME280_temperature;BME280_humidity;BME280_pressure;Samples;Min_cycle;Max_cycle;Signal;HPM_P1;HPM_P2
2021/06/18 00:41:18;;;;;;;8.38;5.68;;;20.00;95.40;;;;;;5064991;28;20517;-71
2021/06/18 00:43:43;;;;;;;9.60;6.45;;;20.00;95.40;;;;;;5066438;28;20052;-71
2021/06/18 00:46:10;;;;;;;10.07;6.15;;;19.90;95.50;;;;;;5064907;28;20261;-71
2021/06/18 00:48:36;;;;;;;10.35;6.97;;;19.90;95.60;;;;;;5064637;28;20562;-71
2021/06/18 00:51:03;;;;;;;10.27;5.82;;;19.80;95.70;;;;;;5066612;28;20131;-71
2021/06/18 00:53:29;;;;;;;11.93;6.20;;;19.80;95.80;;;;;;5064875;28;20017;-71
2021/06/18 02:03:22;;;;;;;8.70;5.88;;;18.90;97.80;;;;;;5052459;28;20068;-71
2021/06/18 02:05:52;;;;;;;7.70;5.70;;;18.90;97.70;;;;;;5202336;23;20045;-71
2021/06/18 02:08:19;;;;;;;10.50;6.57;;;18.90;97.70;;;;;;5073069;28;20054;-71
2021/06/18 02:10:47;;;;;;;7.90;5.90;;;18.90;97.70;;;;;;5073983;28;20029;-71
2021/06/18 02:13:14;;;;;;;8.73;5.97;;;18.80;97.90;;;;;;5074075;28;20067;-72
2021/06/18 02:15:42;;;;;;;9.20;6.20;;;18.80;98.00;;;;;;5169395;23;20091;-71
2021/06/18 02:18:12;;;;;;;7.97;5.72;;;18.80;98.00;;;;;;5074112;28;20020;-71
2021/06/18 02:20:39;;;;;;;8.20;5.88;;;18.80;98.00;;;;;;5073403;28;20021;-71
2021/06/18 02:23:08;;;;;;;9.48;5.90;;;18.80;98.00;;;;;;5074115;28;20070;-71
2021/06/18 02:25:35;;;;;;;9.00;5.80;;;18.70;98.10;;;;;;5095456;23;20140;-71
2021/06/18 02:28:02;;;;;;;8.88;6.05;;;18.70;98.10;;;;;;5073862;28;20104;-71
2021/06/18 02:30:28;;;;;;;9.20;6.28;;;18.60;98.20;;;;;;5073513;28;20024;-71
2021/06/18 02:32:57;;;;;;;8.70;5.63;;;18.70;98.30;;;;;;5056006;28;20032;-71
2021/06/18 02:35:23;;;;;;;10.18;6.07;;;18.70;98.30;;;;;;5073635;28;20025;-71
2021/06/18 02:37:49;;;;;;;9.18;5.85;;;18.70;98.30;;;;;;5056150;28;20404;-71
2021/06/18 02:40:15;;;;;;;9.77;6.50;;;18.60;98.30;;;;;;5073405;28;20039;-71
2021/06/18 02:42:40;;;;;;;11.38;6.57;;;18.60;98.40;;;;;;5073669;28;20029;-71
2021/06/18 03:53:01;;;;;;;11.32;7.07;;;18.30;99.90;;;;;;5068667;28;20460;-71
2021/06/18 03:55:27;;;;;;;11.25;6.82;;;18.30;99.90;;;;;;5054035;28;20389;-71
2021/06/18 03:57:53;;;;;;;11.52;7.00;;;18.20;99.90;;;;;;5054449;28;20033;-73
2021/06/18 04:00:20;;;;;;;9.25;6.93;;;18.00;99.90;;;;;;5072117;28;20115;-73
2021/06/18 04:02:48;;;;;;;12.57;7.05;;;18.10;99.90;;;;;;5072163;28;20028;-73
2021/06/18 04:05:17;;;;;;;10.05;7.13;;;18.10;99.90;;;;;;5057990;23;20072;-70
2021/06/18 04:07:45;;;;;;;12.00;6.95;;;18.10;99.90;;;;;;5032117;28;20068;-69
2021/06/18 04:10:11;;;;;;;10.63;6.38;;;18.20;99.90;;;;;;5020767;28;20078;-69
2021/06/18 04:12:38;;;;;;;8.82;6.15;;;18.30;99.90;;;;;;5027763;28;20049;-69
2021/06/18 04:15:05;;;;;;;9.88;6.90;;;18.40;99.90;;;;;;5031652;28;20022;-69
2021/06/18 04:17:30;;;;;;;10.23;6.85;;;18.60;99.90;;;;;;5031919;28;20021;-69
2021/06/18 04:19:56;;;;;;;10.30;6.35;;;18.60;99.90;;;;;;5013940;28;20109;-70
2021/06/18 04:22:32;;;;;;;9.55;7.07;;;18.60;99.90;;;;;;5032027;28;20076;-69
2021/06/18 04:24:58;;;;;;;11.32;6.22;;;18.60;99.90;;;;;;5014113;28;20403;-69
2021/06/18 04:27:23;;;;;;;13.05;6.70;;;18.60;99.90;;;;;;5029984;28;20479;-71
2021/06/18 04:29:50;;;;;;;9.38;7.30;;;18.60;99.90;;;;;;5020235;28;20033;-69
2021/06/18 04:32:16;;;;;;;9.68;6.70;;;18.70;99.90;;;;;;4994541;28;20441;-70
2021/06/18 04:34:42;;;;;;;13.48;7.10;;;18.80;99.90;;;;;;5012005;28;20030;-70
2021/06/18 04:37:08;;;;;;;10.40;7.32;;;18.90;99.90;;;;;;5023785;28;20025;-70
2021/06/18 04:39:33;;;;;;;8.88;7.30;;;18.90;99.80;;;;;;5013240;28;20038;-71
2021/06/18 04:42:01;;;;;;;9.68;6.80;;;18.90;99.90;;;;;;5031640;28;20018;-70
2021/06/18 04:44:27;;;;;;;12.50;8.45;;;19.00;99.90;;;;;;5031629;28;20491;-70
2021/06/18 04:46:53;;;;;;;9.80;8.00;;;19.10;99.80;;;;;;5031745;28;20026;-70
2021/06/18 04:49:18;;;;;;;11.75;8.93;;;19.20;99.70;;;;;;5031292;28;20097;-70
2021/06/18 04:51:44;;;;;;;12.48;7.72;;;19.30;99.70;;;;;;5030089;28;20037;-70
2021/06/18 04:54:10;;;;;;;11.35;8.68;;;19.30;99.80;;;;;;5011086;28;20116;-70
2021/06/18 04:56:40;;;;;;;12.50;9.10;;;19.30;99.70;;;;;;5011450;28;20030;-69
2021/06/18 04:59:05;;;;;;;14.60;9.73;;;19.40;99.80;;;;;;5011412;28;20421;-70
2021/06/18 05:01:31;;;;;;;13.95;9.52;;;19.50;99.70;;;;;;5011867;28;20272;-70
2021/06/18 05:03:57;;;;;;;10.30;8.15;;;19.60;99.80;;;;;;5011655;28;20022;-70
2021/06/18 05:06:22;;;;;;;15.48;8.10;;;19.70;99.60;;;;;;5011661;28;20034;-70
2021/06/18 05:08:48;;;;;;;10.85;8.90;;;19.70;99.70;;;;;;5011010;28;20398;-70
2021/06/18 05:11:14;;;;;;;12.35;9.15;;;19.80;99.80;;;;;;5011769;28;20032;-70
2021/06/18 05:13:39;;;;;;;13.43;9.50;;;19.80;99.70;;;;;;5011799;28;20033;-70
2021/06/18 05:16:05;;;;;;;19.58;11.70;;;19.90;99.70;;;;;;5011731;28;20094;-70
2021/06/18 05:18:31;;;;;;;17.77;11.63;;;19.90;99.90;;;;;;5011376;28;20377;-70
2021/06/18 05:20:56;;;;;;;14.40;11.60;;;20.00;99.90;;;;;;5029026;28;20026;-71
2021/06/18 05:23:22;;;;;;;15.05;12.25;;;20.00;99.60;;;;;;5030988;28;20021;-71
2021/06/18 05:25:47;;;;;;;18.08;11.48;;;20.10;99.60;;;;;;5030241;28;20055;-71
2021/06/18 05:28:13;;;;;;;25.48;17.95;;;20.20;99.90;;;;;;5034573;28;20029;-71
2021/06/18 05:30:39;;;;;;;26.88;20.85;;;20.20;99.90;;;;;;5035213;28;20017;-71
2021/06/18 05:33:04;;;;;;;48.28;42.78;;;20.30;99.90;;;;;;5035121;28;20033;-70
2021/06/18 05:35:30;;;;;;;46.13;41.42;;;20.40;99.90;;;;;;5033775;28;20029;-70
2021/06/18 05:37:56;;;;;;;40.42;36.30;;;20.50;99.90;;;;;;5017064;28;20026;-70
2021/06/18 05:40:21;;;;;;;37.20;33.55;;;20.60;99.30;;;;;;5034443;28;20026;-70
2021/06/18 05:42:47;;;;;;;35.20;29.90;;;20.70;99.60;;;;;;5034936;28;20545;-70
2021/06/18 05:45:13;;;;;;;31.15;26.15;;;20.80;99.10;;;;;;5034679;28;20017;-70
2021/06/18 05:47:39;;;;;;;31.30;26.73;;;20.80;98.70;;;;;;5034785;28;20021;-72
2021/06/18 05:50:06;;;;;;;28.45;22.83;;;20.90;98.50;;;;;;5034411;28;20025;-70
2021/06/18 05:52:32;;;;;;;20.95;18.73;;;21.00;98.40;;;;;;5034583;28;20455;-70
2021/06/18 05:54:58;;;;;;;22.33;17.58;;;21.00;98.10;;;;;;5034552;28;20022;-70
2021/06/18 05:57:23;;;;;;;15.93;13.55;;;21.10;98.50;;;;;;5034637;28;20022;-70
2021/06/18 05:59:49;;;;;;;17.90;12.70;;;21.20;98.40;;;;;;5034299;28;20025;-70
2021/06/18 06:02:14;;;;;;;13.10;10.27;;;21.40;98.00;;;;;;5034517;28;20025;-70
2021/06/18 06:04:40;;;;;;;17.20;11.80;;;21.50;97.60;;;;;;5031146;28;20072;-70
2021/06/18 06:07:06;;;;;;;17.38;11.10;;;21.50;97.40;;;;;;5034327;28;20018;-70
2021/06/18 06:09:31;;;;;;;16.33;10.98;;;21.50;97.20;;;;;;5013777;28;20120;-70
2021/06/18 06:11:57;;;;;;;18.70;12.02;;;21.60;97.30;;;;;;5019977;28;20036;-71
2021/06/18 06:14:22;;;;;;;11.57;10.00;;;21.70;96.80;;;;;;5032401;28;20097;-70
2021/06/18 06:16:48;;;;;;;16.23;9.70;;;21.80;96.80;;;;;;5032732;28;20033;-70
2021/06/18 06:19:15;;;;;;;16.13;8.48;;;21.80;96.80;;;;;;5025268;28;20034;-70
2021/06/18 06:21:41;;;;;;;16.73;10.13;;;21.80;96.50;;;;;;5032145;28;20035;-69
2021/06/18 06:24:08;;;;;;;17.40;10.55;;;21.90;96.50;;;;;;5033923;28;20092;-70
2021/06/18 06:26:35;;;;;;;12.25;8.90;;;21.90;96.20;;;;;;5015381;28;20064;-70
2021/06/18 06:29:00;;;;;;;11.30;8.75;;;22.00;96.30;;;;;;5015938;28;20021;-70
2021/06/18 06:31:26;;;;;;;11.30;8.43;;;22.10;96.30;;;;;;5034078;28;20105;-69
2021/06/18 06:33:52;;;;;;;12.20;8.13;;;22.20;96.30;;;;;;5033929;28;20387;-70
2021/06/18 06:36:17;;;;;;;14.10;7.78;;;22.30;95.40;;;;;;5033739;28;20052;-70
2021/06/18 06:38:43;;;;;;;16.85;8.68;;;22.40;95.60;;;;;;5033536;28;20455;-69
2021/06/18 06:41:08;;;;;;;10.50;7.53;;;22.50;95.20;;;;;;5015802;28;20025;-70
2021/06/18 06:43:34;;;;;;;13.00;8.82;;;22.50;95.80;;;;;;5016196;28;20112;-70
2021/06/18 06:46:00;;;;;;;15.98;8.55;;;22.60;96.70;;;;;;5033622;28;20099;-70
2021/06/18 06:48:26;;;;;;;19.15;8.75;;;22.70;95.60;;;;;;5033644;28;20025;-69
2021/06/18 06:50:51;;;;;;;12.02;8.35;;;22.70;95.20;;;;;;5033274;28;20029;-70
2021/06/18 06:53:17;;;;;;;12.48;8.40;;;22.80;96.30;;;;;;5034030;28;20025;-70
2021/06/18 06:55:43;;;;;;;12.98;7.97;;;22.90;95.70;;;;;;5033400;28;20396;-70
2021/06/18 06:58:08;;;;;;;10.88;8.13;;;23.00;95.20;;;;;;5033524;28;20021;-70
2021/06/18 07:00:35;;;;;;;12.50;8.07;;;23.10;95.00;;;;;;5033180;28;20029;-70
2021/06/18 07:03:00;;;;;;;16.40;8.35;;;23.10;95.30;;;;;;5033835;28;20017;-69
2021/06/18 07:05:26;;;;;;;13.88;7.88;;;23.30;95.40;;;;;;5033032;28;20407;-70
2021/06/18 07:07:51;;;;;;;12.85;8.50;;;23.30;95.00;;;;;;5033235;28;20052;-70
2021/06/18 07:10:17;;;;;;;10.48;8.68;;;23.50;95.80;;;;;;5015202;28;20055;-70
2021/06/18 07:12:43;;;;;;;13.05;8.15;;;23.50;95.00;;;;;;5015459;28;20079;-69
2021/06/18 07:15:09;;;;;;;11.25;8.07;;;23.60;95.00;;;;;;5033145;28;20487;-70
2021/06/18 07:17:34;;;;;;;11.45;7.82;;;23.70;94.90;;;;;;5015243;28;20116;-70
2021/06/18 07:20:03;;;;;;;11.23;7.82;;;23.80;95.00;;;;;;5032699;28;20108;-70
2021/06/18 07:22:30;;;;;;;13.00;8.35;;;23.90;94.30;;;;;;5032966;28;20108;-70
2021/06/18 07:24:57;;;;;;;13.68;8.65;;;23.90;94.70;;;;;;5033011;28;20033;-70
2021/06/18 07:27:25;;;;;;;12.02;7.60;;;24.10;94.60;;;;;;5015352;28;20021;-69
2021/06/18 07:29:53;;;;;;;11.75;8.40;;;24.10;95.30;;;;;;5032565;28;20029;-69
2021/06/18 07:32:19;;;;;;;9.80;7.43;;;24.30;95.80;;;;;;5032774;28;20079;-69
2021/06/18 07:34:45;;;;;;;10.88;7.28;;;24.40;95.30;;;;;;5033058;28;20034;-70
2021/06/18 07:37:11;;;;;;;11.10;7.63;;;24.40;94.70;;;;;;5032729;28;20033;-70
2021/06/18 07:39:36;;;;;;;9.02;6.53;;;24.50;95.10;;;;;;5032354;28;20035;-70
2021/06/18 07:42:02;;;;;;;10.48;6.68;;;24.60;94.50;;;;;;5014886;28;20021;-70
2021/06/18 07:44:28;;;;;;;12.15;6.47;;;24.80;94.50;;;;;;5032469;28;20028;-70
2021/06/18 07:46:53;;;;;;;10.35;6.78;;;24.90;93.80;;;;;;5032503;28;20029;-70
2021/06/18 07:49:19;;;;;;;12.70;6.93;;;24.90;94.00;;;;;;5031562;28;20034;-71
2021/06/18 07:51:44;;;;;;;9.23;6.18;;;25.10;94.20;;;;;;5032531;28;20130;-70
2021/06/18 07:54:10;;;;;;;8.48;6.68;;;25.20;93.00;;;;;;5032603;28;20033;-69
2021/06/18 07:56:43;;;;;;;11.02;6.65;;;25.30;93.70;;;;;;5032436;28;20061;-70
2021/06/18 07:59:09;;;;;;;11.75;6.50;;;25.30;92.20;;;;;;5032128;28;20159;-70
2021/06/18 08:01:34;;;;;;;10.05;6.43;;;25.40;92.80;;;;;;5032376;28;20051;-70
2021/06/18 08:04:00;;;;;;;8.10;6.60;;;25.60;93.90;;;;;;5032130;28;20075;-70
2021/06/18 08:06:25;;;;;;;12.40;6.78;;;25.70;93.50;;;;;;5032113;28;20033;-70
2021/06/18 08:08:51;;;;;;;8.85;6.80;;;25.70;92.90;;;;;;5031981;28;20434;-70
2021/06/18 08:11:16;;;;;;;8.45;6.85;;;25.70;92.80;;;;;;5032135;28;20040;-70
2021/06/18 08:13:42;;;;;;;12.65;6.85;;;25.70;92.10;;;;;;5032124;28;20095;-70
2021/06/18 08:16:08;;;;;;;15.23;7.18;;;25.70;92.30;;;;;;5032096;28;20391;-70
2021/06/18 08:18:35;;;;;;;12.05;7.13;;;25.80;92.30;;;;;;5031871;28;20428;-70
2021/06/18 08:21:02;;;;;;;9.57;6.10;;;25.90;92.40;;;;;;5031826;28;20032;-70
2021/06/18 08:23:27;;;;;;;11.43;7.07;;;25.90;92.40;;;;;;5032025;28;20017;-70
2021/06/18 08:25:53;;;;;;;10.48;7.18;;;25.90;91.70;;;;;;5031940;28;20029;-69
2021/06/18 08:28:18;;;;;;;11.60;6.90;;;26.00;91.70;;;;;;5032022;28;20415;-70
2021/06/18 08:30:44;;;;;;;11.20;7.18;;;26.00;91.80;;;;;;5031710;28;20021;-70
2021/06/18 08:33:10;;;;;;;9.55;6.80;;;26.10;91.90;;;;;;5031750;28;20376;-69
2021/06/18 08:35:35;;;;;;;11.10;7.28;;;26.20;92.80;;;;;;5031982;28;20085;-70
2021/06/18 08:38:02;;;;;;;13.50;7.57;;;26.30;91.60;;;;;;5031900;28;20029;-71
2021/06/18 08:40:33;;;;;;;12.68;6.85;;;26.30;91.80;;;;;;5031550;28;20392;-70
2021/06/18 08:43:01;;;;;;;10.65;7.43;;;26.40;91.80;;;;;;5031796;28;20483;-70
2021/06/18 08:45:27;;;;;;;13.95;7.00;;;26.50;92.70;;;;;;5031670;28;20388;-70
2021/06/18 08:47:53;;;;;;;8.93;6.70;;;26.60;92.70;;;;;;5031719;28;20040;-69
2021/06/18 08:50:23;;;;;;;12.10;6.68;;;26.70;89.40;;;;;;5031473;28;20021;-70
2021/06/18 08:52:52;;;;;;;16.70;7.75;;;26.80;90.40;;;;;;5031776;28;20029;-70
2021/06/18 08:55:20;;;;;;;12.07;7.15;;;26.80;90.10;;;;;;5031684;28;20490;-70
2021/06/18 08:57:55;;;;;;;8.88;7.20;;;26.90;90.70;;;;;;5031611;28;20021;-70
2021/06/18 09:00:23;;;;;;;9.93;7.18;;;27.00;90.60;;;;;;5031316;28;20109;-70
2021/06/18 09:02:49;;;;;;;9.02;6.80;;;27.10;87.00;;;;;;5034251;28;20518;-70
2021/06/18 09:05:15;;;;;;;11.25;7.03;;;27.20;90.10;;;;;;5035630;28;20108;-70
2021/06/18 09:08:00;;;;;;;10.10;7.03;;;27.30;88.90;;;;;;5035525;28;20100;-69
2021/06/18 09:10:30;;;;;;;8.73;6.45;;;27.30;89.30;;;;;;5035214;28;20037;-71
2021/06/18 09:13:08;;;;;;;;;;;27.40;91.00;;;;;;5018405;28;20014;-70
2021/06/18 09:15:34;;;;;;;10.32;6.75;;;27.50;90.70;;;;;;5035410;28;19911;-69
2021/06/18 09:18:24;;;;;;;10.05;6.95;;;27.60;90.00;;;;;;5035264;28;20034;-70
2021/06/18 09:20:51;;;;;;;;;;;27.70;89.50;;;;;;5035422;28;20124;-70
2021/06/18 09:23:27;;;;;;;10.35;6.57;;;27.80;89.10;;;;;;5035178;28;20283;-70
2021/06/18 09:26:21;;;;;;;10.68;5.85;;;27.90;88.70;;;;;;5035143;28;20505;-70
2021/06/18 09:29:08;;;;;;;10.45;6.40;;;28.00;83.60;;;;;;5035020;28;20049;-70
2021/06/18 09:31:50;;;;;;;11.02;6.35;;;28.20;86.50;;;;;;5035004;28;20045;-70
2021/06/18 09:34:28;;;;;;;8.32;5.63;;;28.30;89.20;;;;;;5035021;28;20061;-69
2021/06/18 09:37:11;;;;;;;11.65;6.18;;;28.50;88.50;;;;;;5035166;28;20022;-70
2021/06/18 09:40:12;;;;;;;9.20;5.85;;;28.60;81.20;;;;;;5034601;28;20041;-70
2021/06/18 09:42:47;;;;;;;9.90;5.60;;;28.70;82.60;;;;;;5034998;28;20017;-70
2021/06/18 09:45:14;;;;;;;11.20;5.20;;;28.70;81.40;;;;;;5034971;28;20025;-70
2021/06/18 09:47:40;;;;;;;8.02;5.35;;;28.80;84.00;;;;;;5034913;28;20376;-70
2021/06/18 09:50:26;;;;;;;12.02;5.25;;;28.80;81.40;;;;;;5034409;28;20022;-70
2021/06/18 09:52:52;;;;;;;8.27;5.20;;;28.90;80.80;;;;;;5034716;28;20013;-71
2021/06/18 09:55:21;;;;;;;12.57;5.47;;;29.00;83.90;;;;;;5034821;28;20036;-70
2021/06/18 09:57:54;;;;;;;6.63;4.95;;;29.00;82.20;;;;;;5034465;28;20021;-69
2021/06/18 10:00:26;;;;;;;8.30;4.70;;;29.20;81.40;;;;;;5034185;28;20025;-71
2021/06/18 10:02:53;;;;;;;8.73;4.35;;;29.30;77.20;;;;;;5034239;28;20222;-70
2021/06/18 10:05:25;;;;;;;8.30;4.95;;;29.30;72.40;;;;;;5073514;22;20041;-74
2021/06/18 10:07:54;;;;;;;6.78;4.13;;;29.30;74.90;;;;;;5017027;28;20033;-74
2021/06/18 10:10:21;;;;;;;5.85;3.40;;;29.40;76.50;;;;;;5033995;28;20483;-73
2021/06/18 10:12:48;;;;;;;6.63;3.22;;;29.60;73.90;;;;;;5015840;28;20491;-73
2021/06/18 10:15:16;;;;;;;7.03;4.40;;;29.70;66.30;;;;;;5033890;28;20053;-73
2021/06/18 10:17:43;;;;;;;9.20;3.80;;;29.80;67.60;;;;;;5033594;28;20040;-73
2021/06/18 10:20:21;;;;;;;9.15;3.58;;;30.20;70.90;;;;;;5033263;28;20033;-73
2021/06/18 10:22:54;;;;;;;6.80;3.40;;;30.40;71.50;;;;;;5033163;28;20022;-73
2021/06/18 10:25:29;;;;;;;6.68;3.70;;;30.50;67.80;;;;;;5034174;28;20040;-73
2021/06/18 10:27:56;;;;;;;5.95;3.20;;;30.70;70.20;;;;;;5034033;28;20045;-73
2021/06/18 10:30:31;;;;;;;8.82;3.28;;;30.70;66.50;;;;;;5015853;28;20033;-73
2021/06/18 10:32:59;;;;;;;7.32;2.80;;;30.70;62.20;;;;;;5034267;28;20026;-73
2021/06/18 10:35:49;;;;;;;4.85;2.85;;;30.70;62.00;;;;;;5034145;28;20036;-73
2021/06/18 10:38:28;;;;;;;6.68;2.40;;;30.70;57.40;;;;;;5033683;28;20031;-73
2021/06/18 10:40:55;;;;;;;4.83;2.53;;;30.70;64.60;;;;;;5033567;28;20586;-73
2021/06/18 10:43:21;;;;;;;6.72;3.00;;;30.80;66.10;;;;;;5033754;28;20483;-73
2021/06/18 10:45:59;;;;;;;4.90;2.85;;;30.90;64.80;;;;;;5034039;28;20083;-73
2021/06/18 10:48:49;;;;;;;6.20;3.10;;;30.90;66.60;;;;;;5033665;28;20025;-72
2021/06/18 10:51:30;;;;;;;5.03;3.20;;;30.90;65.50;;;;;;5033686;28;20026;-72
2021/06/18 10:54:03;;;;;;;5.13;3.00;;;30.90;64.30;;;;;;5015912;28;20022;-72
2021/06/18 10:56:44;;;;;;;9.75;3.20;;;31.00;63.10;;;;;;5033424;28;20026;-72
2021/06/18 10:59:16;;;;;;;4.28;2.63;;;31.10;56.40;;;;;;5033344;28;20022;-72
2021/06/18 11:01:41;;;;;;;5.10;3.05;;;31.20;55.30;;;;;;5015865;28;20025;-72
2021/06/18 11:04:08;;;;;;;4.57;2.88;;;31.20;57.40;;;;;;5033465;28;20025;-73
2021/06/18 11:06:49;;;;;;;6.95;3.17;;;31.20;60.20;;;;;;5033265;28;20029;-72
2021/06/18 11:09:40;;;;;;;5.95;3.33;;;31.10;64.80;;;;;;5032904;28;20021;-72
2021/06/18 11:12:24;;;;;;;4.78;2.95;;;31.20;58.40;;;;;;5015494;28;20456;-72
2021/06/18 11:14:51;;;;;;;6.43;3.10;;;31.20;61.50;;;;;;5015434;28;20022;-72
2021/06/18 11:17:42;;;;;;;5.20;3.22;;;31.30;62.70;;;;;;5033083;28;20025;-72
2021/06/18 11:20:09;;;;;;;6.28;3.70;;;31.40;63.60;;;;;;5032852;28;20040;-72
2021/06/18 11:22:53;;;;;;;4.60;2.72;;;31.40;60.00;;;;;;5015443;28;20380;-72
2021/06/18 11:25:37;;;;;;;7.05;3.03;;;31.50;56.90;;;;;;5031982;28;20057;-72
2021/06/18 11:28:20;;;;;;;5.55;3.20;;;31.50;58.50;;;;;;5033101;28;20021;-72
2021/06/18 11:30:51;;;;;;;7.55;3.40;;;31.50;54.00;;;;;;5032639;28;20025;-72
2021/06/18 11:33:50;;;;;;;5.03;3.30;;;31.60;61.90;;;;;;5032769;28;20112;-72
2021/06/18 11:36:24;;;;;;;6.78;3.60;;;31.60;60.60;;;;;;5032689;28;20032;-72
2021/06/18 11:38:58;;;;;;;6.25;3.42;;;31.70;60.30;;;;;;5032473;28;20025;-72
2021/06/18 11:41:29;;;;;;;6.15;3.25;;;31.80;57.60;;;;;;5032895;28;20027;-72
2021/06/18 11:43:58;;;;;;;5.80;3.28;;;31.80;53.50;;;;;;5032709;28;20025;-72
2021/06/18 11:46:29;;;;;;;5.90;3.25;;;31.90;54.00;;;;;;5032535;28;20179;-72
2021/06/18 11:48:55;;;;;;;5.55;3.35;;;31.90;56.00;;;;;;5032222;28;20514;-72
2021/06/18 11:51:26;;;;;;;7.75;3.10;;;31.90;51.90;;;;;;5032603;28;20581;-72
2021/06/18 11:53:52;;;;;;;6.72;3.42;;;31.70;59.40;;;;;;5014759;28;20040;-72
2021/06/18 11:56:18;;;;;;;5.10;3.13;;;31.50;60.40;;;;;;5032232;28;20033;-73
2021/06/18 11:58:46;;;;;;;7.90;3.28;;;31.40;58.40;;;;;;5032224;28;20022;-72
2021/06/18 12:01:24;;;;;;;7.03;3.40;;;31.40;57.40;;;;;;5032302;28;20025;-72
2021/06/18 12:03:52;;;;;;;8.25;3.30;;;31.50;56.10;;;;;;5013901;28;20080;-72
2021/06/18 12:06:34;;;;;;;5.05;3.08;;;31.70;53.00;;;;;;5025199;28;20032;-72
2021/06/18 12:09:05;;;;;;;5.90;3.20;;;32.10;52.20;;;;;;5031611;28;20064;-72
2021/06/18 12:11:39;;;;;;;6.45;3.58;;;32.10;51.20;;;;;;5032100;28;20025;-72
2021/06/18 12:14:07;;;;;;;6.22;2.80;;;32.20;51.40;;;;;;5032140;28;20018;-72
2021/06/18 12:16:38;;;;;;;4.50;2.75;;;32.30;55.20;;;;;;5032199;28;20029;-72
2021/06/18 12:19:20;;;;;;;5.78;2.65;;;32.30;58.50;;;;;;5031263;28;20080;-72
2021/06/18 12:21:58;;;;;;;4.38;2.70;;;32.30;56.80;;;;;;5032057;28;20495;-72
2021/06/18 12:24:44;;;;;;;4.70;3.03;;;32.40;51.90;;;;;;5032050;28;20025;-73
2021/06/18 12:27:19;;;;;;;4.40;2.90;;;32.50;58.00;;;;;;5031999;28;20036;-73
2021/06/18 12:29:57;;;;;;;5.28;3.10;;;32.60;52.70;;;;;;5031064;28;20025;-73
2021/06/18 12:32:29;;;;;;;8.10;2.80;;;32.80;56.30;;;;;;5031910;28;20510;-73
2021/06/18 12:34:59;;;;;;;4.50;2.80;;;33.10;53.40;;;;;;5031940;28;20040;-73
2021/06/18 12:37:33;;;;;;;9.30;3.65;;;33.50;48.80;;;;;;5031655;28;20028;-73
2021/06/18 12:40:02;;;;;;;5.15;3.38;;;33.90;50.80;;;;;;5030665;28;20040;-73
2021/06/18 12:42:32;;;;;;;;;;;34.40;49.40;;;;;;5032216;28;20021;-73
2021/06/18 12:45:19;;;;;;;7.38;3.25;;;34.90;46.90;;;;;;5031508;28;20550;-73
2021/06/18 12:47:50;;;;;;;4.55;2.85;;;35.50;47.40;;;;;;5031809;28;20026;-73
2021/06/18 12:50:29;;;;;;;7.07;3.13;;;36.00;45.40;;;;;;5031390;28;20025;-73
2021/06/18 12:53:03;;;;;;;4.38;2.88;;;36.30;46.70;;;;;;5031861;28;20017;-73
2021/06/18 12:55:39;;;;;;;4.45;2.78;;;36.90;46.20;;;;;;5031614;28;20468;-74
2021/06/18 12:58:11;;;;;;;6.43;2.65;;;37.40;46.20;;;;;;5031322;28;20037;-73
2021/06/18 13:00:49;;;;;;;10.02;2.92;;;38.00;43.70;;;;;;5031505;28;20028;-74
2021/06/18 13:03:15;;;;;;;6.38;2.63;;;38.50;51.00;;;;;;5013945;28;20030;-74
2021/06/18 13:05:53;;;;;;;5.07;2.97;;;38.90;47.20;;;;;;5031430;28;20042;-77
2021/06/18 13:08:19;;;;;;;4.95;2.55;;;39.40;48.20;;;;;;5027613;28;20021;-74
2021/06/18 13:10:45;;;;;;;5.75;2.53;;;39.80;44.40;;;;;;5035157;28;20018;-73
2021/06/18 13:13:20;;;;;;;4.85;2.50;;;39.80;44.90;;;;;;5030693;28;20171;-74
2021/06/18 13:15:45;;;;;;;5.28;2.58;;;39.30;39.90;;;;;;5012745;28;20498;-74
2021/06/18 13:18:11;;;;;;;3.90;2.50;;;38.90;41.30;;;;;;5031151;28;20065;-73
2021/06/18 13:20:39;;;;;;;4.10;2.33;;;39.00;41.40;;;;;;5030244;28;20113;-74
2021/06/18 13:23:25;;;;;;;4.53;2.50;;;39.50;39.80;;;;;;5031396;28;20379;-74
2021/06/18 13:26:06;;;;;;;11.45;2.90;;;39.80;40.30;;;;;;5027846;28;20036;-75
2021/06/18 13:28:48;;;;;;;6.80;2.22;;;39.40;44.80;;;;;;5030744;28;20026;-74
2021/06/18 13:31:32;;;;;;;8.00;2.40;;;39.60;46.90;;;;;;5031512;28;20021;-74
2021/06/18 13:33:58;;;;;;;4.43;2.35;;;39.90;44.70;;;;;;5013870;28;20037;-73
2021/06/18 13:36:29;;;;;;;3.88;2.33;;;39.90;44.40;;;;;;5031299;28;20037;-74
2021/06/18 13:38:56;;;;;;;3.72;2.22;;;40.20;42.10;;;;;;5031338;28;20049;-74
2021/06/18 13:41:48;;;;;;;3.65;2.42;;;40.80;43.90;;;;;;5031210;28;20497;-74
2021/06/18 13:44:14;;;;;;;3.78;2.60;;;41.40;39.20;;;;;;5028023;28;20488;-74
2021/06/18 13:46:41;;;;;;;8.95;2.80;;;41.90;42.30;;;;;;5031295;28;20021;-74
2021/06/18 13:49:08;;;;;;;6.22;2.47;;;42.30;39.90;;;;;;5048974;28;20132;-74
2021/06/18 13:51:34;;;;;;;4.40;2.38;;;42.20;41.10;;;;;;5049947;28;20025;-74
2021/06/18 13:54:01;;;;;;;5.50;2.65;;;41.80;40.10;;;;;;5034673;28;20097;-73
2021/06/18 13:56:28;;;;;;;5.20;2.70;;;42.00;42.60;;;;;;5016963;28;20025;-74
2021/06/18 13:58:53;;;;;;;6.15;2.58;;;41.60;39.50;;;;;;5034503;28;20113;-73
2021/06/18 14:01:19;;;;;;;4.53;2.60;;;42.10;39.50;;;;;;5034540;28;20460;-74
2021/06/18 14:03:45;;;;;;;4.60;2.40;;;42.70;42.00;;;;;;5034535;28;20030;-75
2021/06/18 14:06:10;;;;;;;4.05;2.60;;;43.30;41.90;;;;;;5016596;28;20060;-75
2021/06/18 14:08:36;;;;;;;5.20;2.60;;;43.80;40.20;;;;;;5034637;28;20037;-74
2021/06/18 14:11:03;;;;;;;5.82;2.58;;;43.90;35.50;;;;;;5049488;28;20021;-74
2021/06/18 14:13:28;;;;;;;5.78;2.70;;;44.10;36.50;;;;;;5034362;28;20076;-74
2021/06/18 14:15:54;;;;;;;6.22;2.40;;;44.20;38.40;;;;;;5016570;28;20025;-74
2021/06/18 14:18:23;;;;;;;34.92;4.47;;;44.50;36.10;;;;;;5049621;28;20037;-75
2021/06/18 14:20:51;;;;;;;5.20;2.35;;;44.40;37.90;;;;;;5033866;28;20026;-74
2021/06/18 14:23:18;;;;;;;4.20;2.55;;;44.90;40.30;;;;;;5034029;28;20033;-73
2021/06/18 14:25:48;;;;;;;7.22;2.63;;;45.30;39.20;;;;;;5034087;28;20112;-75
2021/06/18 14:28:14;;;;;;;6.25;2.78;;;45.50;39.20;;;;;;5033566;28;20029;-75
2021/06/18 14:30:40;;;;;;;5.53;2.63;;;46.00;38.30;;;;;;5015868;28;20048;-74
2021/06/18 14:33:12;;;;;;;5.20;2.72;;;46.00;38.30;;;;;;5034017;28;20029;-75
2021/06/18 14:35:47;;;;;;;7.40;2.63;;;46.30;38.60;;;;;;5033857;28;20034;-74
2021/06/18 14:38:15;;;;;;;5.63;2.30;;;46.30;35.60;;;;;;5016292;28;20029;-75
2021/06/18 14:40:43;;;;;;;5.13;2.38;;;46.90;37.40;;;;;;5033707;28;20028;-75
2021/06/18 14:43:08;;;;;;;4.67;2.57;;;47.50;36.20;;;;;;5033572;28;20040;-74
2021/06/18 14:45:35;;;;;;;5.10;2.80;;;47.90;36.60;;;;;;5033525;28;20268;-74
2021/06/18 14:48:01;;;;;;;4.60;2.50;;;48.40;38.20;;;;;;5033625;28;20527;-74
2021/06/18 14:50:29;;;;;;;10.68;2.70;;;48.70;37.40;;;;;;5033627;28;20025;-74
2021/06/18 14:52:56;;;;;;;6.68;2.60;;;48.80;37.80;;;;;;5033635;28;20018;-74
2021/06/18 14:55:21;;;;;;;6.22;2.63;;;48.70;37.70;;;;;;5033405;28;20497;-74
2021/06/18 14:57:47;;;;;;;5.78;2.78;;;48.60;37.20;;;;;;5033551;28;20022;-74
2021/06/18 15:00:16;;;;;;;5.88;2.50;;;48.70;37.90;;;;;;5033153;28;20026;-74
2021/06/18 15:02:43;;;;;;;6.90;2.75;;;48.40;36.50;;;;;;5043249;28;20037;-74
2021/06/18 15:05:11;;;;;;;4.28;2.50;;;46.90;37.10;;;;;;5032647;28;20057;-74
2021/06/18 15:07:38;;;;;;;6.28;3.03;;;45.60;37.80;;;;;;5014813;28;20022;-74
2021/06/18 15:10:04;;;;;;;32.13;3.83;;;43.80;37.90;;;;;;5032948;28;20025;-74
2021/06/18 15:12:29;;;;;;;7.18;3.05;;;43.90;41.50;;;;;;5015625;28;20017;-74
2021/06/18 15:14:55;;;;;;;8.20;2.70;;;44.30;38.20;;;;;;5033565;28;20441;-74
2021/06/18 15:17:20;;;;;;;7.50;2.80;;;43.90;39.70;;;;;;5033187;28;20488;-74
2021/06/18 15:19:46;;;;;;;7.90;3.05;;;45.30;40.60;;;;;;5032881;28;20112;-74
2021/06/18 15:22:12;;;;;;;6.95;2.88;;;46.50;38.60;;;;;;5033276;28;20110;-74
2021/06/18 15:24:37;;;;;;;5.50;2.72;;;47.40;38.50;;;;;;5032966;28;20112;-74
2021/06/18 15:27:04;;;;;;;6.90;2.67;;;48.50;38.80;;;;;;5033036;28;20033;-74
2021/06/18 15:29:30;;;;;;;4.03;2.58;;;48.70;36.50;;;;;;5032370;28;20515;-74
2021/06/18 15:31:56;;;;;;;5.55;2.75;;;48.70;37.30;;;;;;5015164;28;20063;-73
2021/06/18 15:34:22;;;;;;;6.07;2.50;;;49.70;37.70;;;;;;5032907;28;20392;-74
2021/06/18 15:36:47;;;;;;;4.72;2.78;;;50.60;36.10;;;;;;5032778;28;20025;-74
2021/06/18 15:39:15;;;;;;;4.57;2.38;;;51.30;34.90;;;;;;5032450;28;20033;-74
2021/06/18 15:41:41;;;;;;;6.63;2.70;;;51.80;35.90;;;;;;5032718;28;20483;-74
2021/06/18 15:44:07;;;;;;;4.53;2.40;;;52.40;35.50;;;;;;5048010;28;20028;-74
2021/06/18 15:46:33;;;;;;;7.18;2.78;;;52.70;35.80;;;;;;5032564;28;20034;-74
2021/06/18 15:48:58;;;;;;;4.45;2.28;;;53.20;35.00;;;;;;5032267;28;20045;-74